sensor_id;sensor_type;location;lat;lon;timestamp;P1;durP1;ratioP1;P2;durP2;ratioP2
26106;SDS011;13866;50.748;12.630;2022-11-04T00:02:13;12.10;;;10.03;;
26106;SDS011;13866;50.748;12.630;2022-11-04T00:04:42;13.97;;;9.37;;
26106;SDS011;13866;50.748;12.630;2022-11-04T00:07:08;13.10;;;10.50;;
26106;SDS011;13866;50.748;12.630;2022-11-04T00:09:54;10.57;;;9.47;;
26106;SDS011;13866;50.748;12.630;2022-11-04T00:12:22;10.00;;;9.30;;
26106;SDS011;13866;50.748;12.630;2022-11-04T00:14:53;12.10;;;10.13;;
26106;SDS011;13866;50.748;12.630;2022-11-04T00:17:38;10.77;;;10.00;;
26106;SDS011;13866;50.748;12.630;2022-11-04T00:20:04;11.93;;;10.93;;
26106;SDS011;13866;50.748;12.630;2022-11-04T00:22:49;11.37;;;10.33;;
26106;SDS011;13866;50.748;12.630;2022-11-04T00:25:33;9.90;;;9.03;;
26106;SDS011;13866;50.748;12.630;2022-11-04T00:28:17;12.27;;;11.13;;
26106;SDS011;13866;50.748;12.630;2022-11-04T00:31:03;11.07;;;10.07;;
26106;SDS011;13866;50.748;12.630;2022-11-04T00:33:51;9.53;;;8.90;;
26106;SDS011;13866;50.748;12.630;2022-11-04T00:36:18;10.57;;;9.50;;
26106;SDS011;13866;50.748;12.630;2022-11-04T00:38:45;9.60;;;8.93;;
26106;SDS011;13866;50.748;12.630;2022-11-04T00:41:11;11.70;;;9.67;;
26106;SDS011;13866;50.748;12.630;2022-11-04T00:43:57;9.63;;;8.73;;
26106;SDS011;13866;50.748;12.630;2022-11-04T00:46:32;9.63;;;8.97;;
26106;SDS011;13866;50.748;12.630;2022-11-04T00:49:01;8.97;;;8.40;;
26106;SDS011;13866;50.748;12.630;2022-11-04T00:51:29;10.23;;;9.27;;
26106;SDS011;13866;50.748;12.630;2022-11-04T00:53:55;11.00;;;9.57;;
26106;SDS011;13866;50.748;12.630;2022-11-04T00:56:22;10.27;;;9.30;;
26106;SDS011;13866;50.748;12.630;2022-11-04T00:58:50;13.43;;;10.60;;
26106;SDS011;13866;50.748;12.630;2022-11-04T01:01:16;11.13;;;10.33;;
26106;SDS011;13866;50.748;12.630;2022-11-04T01:03:44;11.47;;;10.30;;
26106;SDS011;13866;50.748;12.630;2022-11-04T01:06:11;10.90;;;9.97;;
26106;SDS011;13866;50.748;12.630;2022-11-04T01:08:36;26.50;;;10.77;;
26106;SDS011;13866;50.748;12.630;2022-11-04T01:11:03;10.67;;;9.70;;
26106;SDS011;13866;50.748;12.630;2022-11-04T01:13:30;14.67;;;9.83;;
26106;SDS011;13866;50.748;12.630;2022-11-04T01:15:57;9.40;;;8.70;;
26106;SDS011;13866;50.748;12.630;2022-11-04T01:18:23;8.70;;;8.10;;
26106;SDS011;13866;50.748;12.630;2022-11-04T01:20:49;9.07;;;8.30;;
26106;SDS011;13866;50.748;12.630;2022-11-04T01:23:16;8.77;;;7.97;;
26106;SDS011;13866;50.748;12.630;2022-11-04T01:25:45;11.27;;;8.90;;
26106;SDS011;13866;50.748;12.630;2022-11-04T01:28:11;8.57;;;7.80;;
26106;SDS011;13866;50.748;12.630;2022-11-04T01:30:37;10.70;;;9.00;;
26106;SDS011;13866;50.748;12.630;2022-11-04T01:33:08;15.37;;;8.50;;
26106;SDS011;13866;50.748;12.630;2022-11-04T01:35:34;8.70;;;7.90;;
26106;SDS011;13866;50.748;12.630;2022-11-04T01:38:05;9.50;;;8.37;;
26106;SDS011;13866;50.748;12.630;2022-11-04T01:40:37;8.83;;;8.03;;
26106;SDS011;13866;50.748;12.630;2022-11-04T01:43:11;8.33;;;7.83;;
26106;SDS011;13866;50.748;12.630;2022-11-04T01:45:41;12.03;;;9.00;;
26106;SDS011;13866;50.748;12.630;2022-11-04T01:48:18;10.47;;;9.47;;
26106;SDS011;13866;50.748;12.630;2022-11-04T01:50:49;12.60;;;8.90;;
26106;SDS011;13866;50.748;12.630;2022-11-04T01:53:17;9.70;;;8.80;;
26106;SDS011;13866;50.748;12.630;2022-11-04T01:55:50;11.93;;;10.37;;
26106;SDS011;13866;50.748;12.630;2022-11-04T01:58:20;10.03;;;9.00;;
26106;SDS011;13866;50.748;12.630;2022-11-04T02:00:50;10.60;;;9.50;;
26106;SDS011;13866;50.748;12.630;2022-11-04T02:05:42;10.57;;;9.50;;
26106;SDS011;13866;50.748;12.630;2022-11-04T02:08:08;16.13;;;10.77;;
26106;SDS011;13866;50.748;12.630;2022-11-04T02:10:40;14.67;;;10.80;;
26106;SDS011;13866;50.748;12.630;2022-11-04T02:13:11;11.50;;;10.17;;
26106;SDS011;13866;50.748;12.630;2022-11-04T02:21:21;12.87;;;11.40;;
26106;SDS011;13866;50.748;12.630;2022-11-04T02:24:08;13.60;;;12.20;;
26106;SDS011;13866;50.748;12.630;2022-11-04T02:32:26;12.93;;;11.60;;
26106;SDS011;13866;50.748;12.630;2022-11-04T02:37:50;14.73;;;11.70;;
26106;SDS011;13866;50.748;12.630;2022-11-04T02:43:29;13.73;;;12.23;;
26106;SDS011;13866;50.748;12.630;2022-11-04T02:46:23;22.13;;;11.73;;
26106;SDS011;13866;50.748;12.630;2022-11-04T02:49:07;20.37;;;11.50;;
26106;SDS011;13866;50.748;12.630;2022-11-04T02:51:44;14.90;;;12.20;;
26106;SDS011;13866;50.748;12.630;2022-11-04T02:54:37;14.73;;;12.07;;
26106;SDS011;13866;50.748;12.630;2022-11-04T02:57:07;13.47;;;11.93;;
26106;SDS011;13866;50.748;12.630;2022-11-04T02:59:38;12.63;;;11.50;;
26106;SDS011;13866;50.748;12.630;2022-11-04T03:02:09;11.70;;;10.33;;
26106;SDS011;13866;50.748;12.630;2022-11-04T03:04:40;16.03;;;11.27;;
26106;SDS011;13866;50.748;12.630;2022-11-04T03:07:10;14.40;;;11.43;;
26106;SDS011;13866;50.748;12.630;2022-11-04T03:09:39;11.87;;;10.67;;
26106;SDS011;13866;50.748;12.630;2022-11-04T03:12:11;11.50;;;10.37;;
26106;SDS011;13866;50.748;12.630;2022-11-04T03:14:40;11.97;;;10.83;;
26106;SDS011;13866;50.748;12.630;2022-11-04T03:17:16;13.90;;;10.80;;
26106;SDS011;13866;50.748;12.630;2022-11-04T03:19:53;15.00;;;10.40;;
26106;SDS011;13866;50.748;12.630;2022-11-04T03:22:24;10.00;;;9.30;;
26106;SDS011;13866;50.748;12.630;2022-11-04T03:24:53;10.70;;;9.80;;
26106;SDS011;13866;50.748;12.630;2022-11-04T03:27:22;16.93;;;10.27;;
26106;SDS011;13866;50.748;12.630;2022-11-04T03:32:24;10.17;;;9.37;;
26106;SDS011;13866;50.748;12.630;2022-11-04T03:34:57;15.70;;;11.63;;
26106;SDS011;13866;50.748;12.630;2022-11-04T03:37:22;11.13;;;10.20;;
26106;SDS011;13866;50.748;12.630;2022-11-04T03:39:48;18.90;;;11.97;;
26106;SDS011;13866;50.748;12.630;2022-11-04T03:42:14;14.87;;;10.63;;
26106;SDS011;13866;50.748;12.630;2022-11-04T03:44:51;13.97;;;11.60;;
26106;SDS011;13866;50.748;12.630;2022-11-04T03:47:19;11.57;;;10.47;;
26106;SDS011;13866;50.748;12.630;2022-11-04T03:49:47;11.50;;;10.37;;
26106;SDS011;13866;50.748;12.630;2022-11-04T03:52:14;11.30;;;10.50;;
26106;SDS011;13866;50.748;12.630;2022-11-04T03:54:41;12.70;;;11.40;;
26106;SDS011;13866;50.748;12.630;2022-11-04T03:57:23;20.47;;;14.37;;
26106;SDS011;13866;50.748;12.630;2022-11-04T04:02:34;13.37;;;12.03;;
26106;SDS011;13866;50.748;12.630;2022-11-04T04:07:58;12.63;;;11.43;;
26106;SDS011;13866;50.748;12.630;2022-11-04T04:10:51;13.40;;;11.30;;
26106;SDS011;13866;50.748;12.630;2022-11-04T04:13:44;12.57;;;11.27;;
26106;SDS011;13866;50.748;12.630;2022-11-04T04:16:36;10.60;;;9.67;;
26106;SDS011;13866;50.748;12.630;2022-11-04T04:19:18;11.67;;;10.57;;
26106;SDS011;13866;50.748;12.630;2022-11-04T04:21:52;12.27;;;11.17;;
26106;SDS011;13866;50.748;12.630;2022-11-04T04:24:26;11.60;;;10.60;;
26106;SDS011;13866;50.748;12.630;2022-11-04T04:27:15;13.07;;;10.50;;
26106;SDS011;13866;50.748;12.630;2022-11-04T04:30:11;12.90;;;11.77;;
26106;SDS011;13866;50.748;12.630;2022-11-04T04:32:39;12.93;;;11.50;;
26106;SDS011;13866;50.748;12.630;2022-11-04T04:35:15;13.17;;;11.97;;
26106;SDS011;13866;50.748;12.630;2022-11-04T04:38:03;13.07;;;11.90;;
26106;SDS011;13866;50.748;12.630;2022-11-04T04:40:58;13.70;;;11.43;;
26106;SDS011;13866;50.748;12.630;2022-11-04T04:43:49;12.37;;;11.10;;
26106;SDS011;13866;50.748;12.630;2022-11-04T04:46:33;16.43;;;12.17;;
26106;SDS011;13866;50.748;12.630;2022-11-04T04:49:07;15.07;;;11.50;;
26106;SDS011;13866;50.748;12.630;2022-11-04T04:51:34;13.40;;;12.10;;
26106;SDS011;13866;50.748;12.630;2022-11-04T04:54:03;11.67;;;10.73;;
26106;SDS011;13866;50.748;12.630;2022-11-04T04:56:28;12.97;;;11.67;;
26106;SDS011;13866;50.748;12.630;2022-11-04T04:58:54;15.73;;;12.87;;
26106;SDS011;13866;50.748;12.630;2022-11-04T05:01:20;14.27;;;12.83;;
26106;SDS011;13866;50.748;12.630;2022-11-04T05:03:45;15.70;;;12.87;;
26106;SDS011;13866;50.748;12.630;2022-11-04T05:06:11;16.03;;;12.73;;
26106;SDS011;13866;50.748;12.630;2022-11-04T05:08:36;14.33;;;12.23;;
26106;SDS011;13866;50.748;12.630;2022-11-04T05:11:02;12.93;;;11.73;;
26106;SDS011;13866;50.748;12.630;2022-11-04T05:13:27;14.30;;;12.80;;
26106;SDS011;13866;50.748;12.630;2022-11-04T05:15:54;12.77;;;11.50;;
26106;SDS011;13866;50.748;12.630;2022-11-04T05:18:35;14.23;;;12.77;;
26106;SDS011;13866;50.748;12.630;2022-11-04T05:21:02;14.23;;;12.83;;
26106;SDS011;13866;50.748;12.630;2022-11-04T05:23:36;14.93;;;13.40;;
26106;SDS011;13866;50.748;12.630;2022-11-04T05:26:02;16.90;;;11.87;;
26106;SDS011;13866;50.748;12.630;2022-11-04T05:28:27;14.43;;;12.53;;
26106;SDS011;13866;50.748;12.630;2022-11-04T05:30:53;14.47;;;12.63;;
26106;SDS011;13866;50.748;12.630;2022-11-04T05:33:18;17.73;;;12.67;;
26106;SDS011;13866;50.748;12.630;2022-11-04T05:35:44;13.50;;;12.20;;
26106;SDS011;13866;50.748;12.630;2022-11-04T05:38:09;18.63;;;13.43;;
26106;SDS011;13866;50.748;12.630;2022-11-04T05:40:35;16.07;;;13.73;;
26106;SDS011;13866;50.748;12.630;2022-11-04T05:43:01;14.13;;;12.70;;
26106;SDS011;13866;50.748;12.630;2022-11-04T05:45:27;18.23;;;16.00;;
26106;SDS011;13866;50.748;12.630;2022-11-04T05:48:00;17.63;;;15.83;;
26106;SDS011;13866;50.748;12.630;2022-11-04T05:50:27;13.17;;;12.03;;
26106;SDS011;13866;50.748;12.630;2022-11-04T05:52:58;13.30;;;11.90;;
26106;SDS011;13866;50.748;12.630;2022-11-04T05:55:24;12.57;;;11.50;;
26106;SDS011;13866;50.748;12.630;2022-11-04T05:57:50;12.70;;;11.57;;
26106;SDS011;13866;50.748;12.630;2022-11-04T06:00:16;13.87;;;11.57;;
26106;SDS011;13866;50.748;12.630;2022-11-04T06:02:42;14.20;;;12.80;;
26106;SDS011;13866;50.748;12.630;2022-11-04T06:05:08;13.27;;;12.10;;
26106;SDS011;13866;50.748;12.630;2022-11-04T06:07:34;11.93;;;10.90;;
26106;SDS011;13866;50.748;12.630;2022-11-04T06:09:59;11.87;;;10.90;;
26106;SDS011;13866;50.748;12.630;2022-11-04T06:12:24;14.77;;;13.17;;
26106;SDS011;13866;50.748;12.630;2022-11-04T06:14:50;13.13;;;11.93;;
26106;SDS011;13866;50.748;12.630;2022-11-04T06:17:17;12.67;;;11.57;;
26106;SDS011;13866;50.748;12.630;2022-11-04T06:19:43;13.17;;;11.77;;
26106;SDS011;13866;50.748;12.630;2022-11-04T06:22:16;14.77;;;13.37;;
26106;SDS011;13866;50.748;12.630;2022-11-04T06:24:43;27.30;;;20.10;;
26106;SDS011;13866;50.748;12.630;2022-11-04T06:27:08;26.13;;;21.87;;
26106;SDS011;13866;50.748;12.630;2022-11-04T06:29:35;21.33;;;19.07;;
26106;SDS011;13866;50.748;12.630;2022-11-04T06:32:04;21.20;;;16.53;;
26106;SDS011;13866;50.748;12.630;2022-11-04T06:34:30;16.73;;;14.93;;
26106;SDS011;13866;50.748;12.630;2022-11-04T06:36:56;16.97;;;15.07;;
26106;SDS011;13866;50.748;12.630;2022-11-04T06:39:21;14.07;;;12.63;;
26106;SDS011;13866;50.748;12.630;2022-11-04T06:41:47;16.80;;;12.67;;
26106;SDS011;13866;50.748;12.630;2022-11-04T06:44:12;14.00;;;12.90;;
26106;SDS011;13866;50.748;12.630;2022-11-04T06:46:38;12.70;;;11.40;;
26106;SDS011;13866;50.748;12.630;2022-11-04T06:49:08;16.43;;;12.40;;
26106;SDS011;13866;50.748;12.630;2022-11-04T06:51:38;12.60;;;11.60;;
26106;SDS011;13866;50.748;12.630;2022-11-04T06:54:04;17.60;;;12.60;;
26106;SDS011;13866;50.748;12.630;2022-11-04T06:56:30;12.13;;;10.83;;
26106;SDS011;13866;50.748;12.630;2022-11-04T06:58:55;12.33;;;11.13;;
26106;SDS011;13866;50.748;12.630;2022-11-04T07:01:22;12.50;;;11.50;;
26106;SDS011;13866;50.748;12.630;2022-11-04T07:03:51;11.17;;;10.33;;
26106;SDS011;13866;50.748;12.630;2022-11-04T07:06:18;14.30;;;12.80;;
26106;SDS011;13866;50.748;12.630;2022-11-04T07:08:45;14.13;;;12.87;;
26106;SDS011;13866;50.748;12.630;2022-11-04T07:11:11;21.70;;;12.43;;
26106;SDS011;13866;50.748;12.630;2022-11-04T07:13:37;10.63;;;9.83;;
26106;SDS011;13866;50.748;12.630;2022-11-04T07:16:04;16.83;;;12.67;;
26106;SDS011;13866;50.748;12.630;2022-11-04T07:18:33;13.07;;;11.93;;
26106;SDS011;13866;50.748;12.630;2022-11-04T07:21:00;13.13;;;12.07;;
26106;SDS011;13866;50.748;12.630;2022-11-04T07:23:26;13.10;;;11.93;;
26106;SDS011;13866;50.748;12.630;2022-11-04T07:25:52;12.80;;;11.70;;
26106;SDS011;13866;50.748;12.630;2022-11-04T07:28:20;12.53;;;11.60;;
26106;SDS011;13866;50.748;12.630;2022-11-04T07:30:45;12.70;;;11.50;;
26106;SDS011;13866;50.748;12.630;2022-11-04T07:33:11;11.07;;;10.07;;
26106;SDS011;13866;50.748;12.630;2022-11-04T07:35:36;11.50;;;10.43;;
26106;SDS011;13866;50.748;12.630;2022-11-04T07:38:02;11.37;;;10.30;;
26106;SDS011;13866;50.748;12.630;2022-11-04T07:40:29;11.33;;;10.37;;
26106;SDS011;13866;50.748;12.630;2022-11-04T07:42:58;11.70;;;10.60;;
26106;SDS011;13866;50.748;12.630;2022-11-04T07:45:24;10.40;;;9.60;;
26106;SDS011;13866;50.748;12.630;2022-11-04T07:47:50;11.53;;;10.53;;
26106;SDS011;13866;50.748;12.630;2022-11-04T07:50:15;10.77;;;9.80;;
26106;SDS011;13866;50.748;12.630;2022-11-04T07:52:41;11.47;;;10.37;;
26106;SDS011;13866;50.748;12.630;2022-11-04T07:55:06;11.97;;;10.57;;
26106;SDS011;13866;50.748;12.630;2022-11-04T07:57:33;11.37;;;10.63;;
26106;SDS011;13866;50.748;12.630;2022-11-04T07:59:59;12.47;;;11.10;;
26106;SDS011;13866;50.748;12.630;2022-11-04T08:02:25;11.97;;;10.90;;
26106;SDS011;13866;50.748;12.630;2022-11-04T08:04:50;11.87;;;11.07;;
26106;SDS011;13866;50.748;12.630;2022-11-04T08:07:16;10.93;;;10.10;;
26106;SDS011;13866;50.748;12.630;2022-11-04T08:09:41;11.77;;;10.93;;
26106;SDS011;13866;50.748;12.630;2022-11-04T08:12:07;10.10;;;9.40;;
26106;SDS011;13866;50.748;12.630;2022-11-04T08:14:33;9.60;;;8.90;;
26106;SDS011;13866;50.748;12.630;2022-11-04T08:16:58;9.00;;;8.40;;
26106;SDS011;13866;50.748;12.630;2022-11-04T08:19:24;8.80;;;8.20;;
26106;SDS011;13866;50.748;12.630;2022-11-04T08:21:50;8.23;;;7.73;;
26106;SDS011;13866;50.748;12.630;2022-11-04T08:24:15;7.93;;;7.40;;
26106;SDS011;13866;50.748;12.630;2022-11-04T08:26:41;8.93;;;8.30;;
26106;SDS011;13866;50.748;12.630;2022-11-04T08:29:06;7.87;;;7.27;;
26106;SDS011;13866;50.748;12.630;2022-11-04T08:31:32;7.30;;;7.00;;
26106;SDS011;13866;50.748;12.630;2022-11-04T08:33:58;7.73;;;7.40;;
26106;SDS011;13866;50.748;12.630;2022-11-04T08:36:28;6.10;;;5.70;;
26106;SDS011;13866;50.748;12.630;2022-11-04T08:38:59;8.30;;;6.10;;
26106;SDS011;13866;50.748;12.630;2022-11-04T08:41:26;6.63;;;6.43;;
26106;SDS011;13866;50.748;12.630;2022-11-04T08:43:54;5.47;;;4.97;;
26106;SDS011;13866;50.748;12.630;2022-11-04T08:46:20;6.33;;;6.03;;
26106;SDS011;13866;50.748;12.630;2022-11-04T08:48:46;5.23;;;5.10;;
26106;SDS011;13866;50.748;12.630;2022-11-04T08:51:14;5.70;;;5.40;;
26106;SDS011;13866;50.748;12.630;2022-11-04T08:53:42;5.50;;;5.30;;
26106;SDS011;13866;50.748;12.630;2022-11-04T08:56:09;5.57;;;5.37;;
26106;SDS011;13866;50.748;12.630;2022-11-04T08:58:34;5.30;;;5.20;;
26106;SDS011;13866;50.748;12.630;2022-11-04T09:01:02;6.63;;;6.20;;
26106;SDS011;13866;50.748;12.630;2022-11-04T09:03:29;6.27;;;5.90;;
26106;SDS011;13866;50.748;12.630;2022-11-04T09:05:54;6.33;;;6.13;;
26106;SDS011;13866;50.748;12.630;2022-11-04T09:08:22;5.70;;;5.30;;
26106;SDS011;13866;50.748;12.630;2022-11-04T09:10:47;5.33;;;5.03;;
26106;SDS011;13866;50.748;12.630;2022-11-04T09:13:13;4.83;;;4.63;;
26106;SDS011;13866;50.748;12.630;2022-11-04T09:15:40;7.93;;;5.50;;
26106;SDS011;13866;50.748;12.630;2022-11-04T09:18:06;5.13;;;5.03;;
26106;SDS011;13866;50.748;12.630;2022-11-04T09:20:32;5.73;;;5.57;;
26106;SDS011;13866;50.748;12.630;2022-11-04T09:22:58;5.13;;;5.03;;
26106;SDS011;13866;50.748;12.630;2022-11-04T09:25:24;5.47;;;5.17;;
26106;SDS011;13866;50.748;12.630;2022-11-04T09:27:50;5.27;;;4.97;;
26106;SDS011;13866;50.748;12.630;2022-11-04T09:30:15;6.40;;;5.70;;
26106;SDS011;13866;50.748;12.630;2022-11-04T09:32:41;5.00;;;4.90;;
26106;SDS011;13866;50.748;12.630;2022-11-04T09:35:07;4.97;;;4.87;;
26106;SDS011;13866;50.748;12.630;2022-11-04T09:37:33;5.10;;;4.90;;
26106;SDS011;13866;50.748;12.630;2022-11-04T09:39:58;5.13;;;4.93;;
26106;SDS011;13866;50.748;12.630;2022-11-04T09:44:56;5.33;;;4.93;;
26106;SDS011;13866;50.748;12.630;2022-11-04T09:47:29;4.07;;;3.97;;
26106;SDS011;13866;50.748;12.630;2022-11-04T09:49:57;4.20;;;4.00;;
26106;SDS011;13866;50.748;12.630;2022-11-04T09:52:24;3.30;;;3.20;;
26106;SDS011;13866;50.748;12.630;2022-11-04T09:55:00;4.10;;;4.00;;
26106;SDS011;13866;50.748;12.630;2022-11-04T09:57:36;3.63;;;3.63;;
26106;SDS011;13866;50.748;12.630;2022-11-04T10:00:03;3.70;;;3.50;;
26106;SDS011;13866;50.748;12.630;2022-11-04T10:05:30;3.70;;;3.40;;
26106;SDS011;13866;50.748;12.630;2022-11-04T10:16:31;3.50;;;3.40;;
26106;SDS011;13866;50.748;12.630;2022-11-04T10:21:51;3.87;;;3.77;;
26106;SDS011;13866;50.748;12.630;2022-11-04T10:24:42;3.57;;;3.40;;
26106;SDS011;13866;50.748;12.630;2022-11-04T10:27:32;3.20;;;2.97;;
26106;SDS011;13866;50.748;12.630;2022-11-04T10:30:03;2.50;;;2.50;;
26106;SDS011;13866;50.748;12.630;2022-11-04T10:35:53;2.50;;;2.50;;
26106;SDS011;13866;50.748;12.630;2022-11-04T10:41:11;3.43;;;3.17;;
26106;SDS011;13866;50.748;12.630;2022-11-04T10:43:51;2.70;;;2.70;;
26106;SDS011;13866;50.748;12.630;2022-11-04T10:49:29;2.80;;;2.70;;
26106;SDS011;13866;50.748;12.630;2022-11-04T10:52:17;3.67;;;3.37;;
26106;SDS011;13866;50.748;12.630;2022-11-04T10:54:44;4.27;;;3.40;;
26106;SDS011;13866;50.748;12.630;2022-11-04T10:57:12;2.50;;;2.50;;
26106;SDS011;13866;50.748;12.630;2022-11-04T10:59:57;4.00;;;3.80;;
26106;SDS011;13866;50.748;12.630;2022-11-04T11:05:20;3.87;;;3.57;;
26106;SDS011;13866;50.748;12.630;2022-11-04T11:07:49;3.63;;;3.37;;
26106;SDS011;13866;50.748;12.630;2022-11-04T11:10:26;3.90;;;3.80;;
26106;SDS011;13866;50.748;12.630;2022-11-04T11:15:32;4.13;;;4.03;;
26106;SDS011;13866;50.748;12.630;2022-11-04T11:20:31;4.30;;;4.20;;
26106;SDS011;13866;50.748;12.630;2022-11-04T11:22:59;3.70;;;3.40;;
26106;SDS011;13866;50.748;12.630;2022-11-04T11:25:48;3.30;;;3.20;;
26106;SDS011;13866;50.748;12.630;2022-11-04T11:28:23;4.37;;;4.03;;
26106;SDS011;13866;50.748;12.630;2022-11-04T11:38:50;4.63;;;4.40;;
26106;SDS011;13866;50.748;12.630;2022-11-04T11:41:16;9.50;;;3.93;;
26106;SDS011;13866;50.748;12.630;2022-11-04T11:43:53;3.00;;;2.90;;
26106;SDS011;13866;50.748;12.630;2022-11-04T11:46:23;3.10;;;2.90;;
26106;SDS011;13866;50.748;12.630;2022-11-04T11:48:52;2.87;;;2.77;;
26106;SDS011;13866;50.748;12.630;2022-11-04T11:51:26;3.13;;;3.03;;
26106;SDS011;13866;50.748;12.630;2022-11-04T11:56:58;3.90;;;3.57;;
26106;SDS011;13866;50.748;12.630;2022-11-04T11:59:36;3.43;;;3.33;;
26106;SDS011;13866;50.748;12.630;2022-11-04T12:02:16;3.03;;;3.03;;
26106;SDS011;13866;50.748;12.630;2022-11-04T12:04:49;2.27;;;2.23;;
26106;SDS011;13866;50.748;12.630;2022-11-04T12:10:27;2.10;;;2.10;;
26106;SDS011;13866;50.748;12.630;2022-11-04T12:13:23;2.03;;;1.93;;
26106;SDS011;13866;50.748;12.630;2022-11-04T12:16:07;5.43;;;2.30;;
26106;SDS011;13866;50.748;12.630;2022-11-04T12:19:08;2.73;;;2.53;;
26106;SDS011;13866;50.748;12.630;2022-11-04T12:27:32;2.77;;;2.57;;
26106;SDS011;13866;50.748;12.630;2022-11-04T12:30:06;2.50;;;2.17;;
26106;SDS011;13866;50.748;12.630;2022-11-04T12:35:10;1.83;;;1.83;;
26106;SDS011;13866;50.748;12.630;2022-11-04T12:40:34;2.20;;;2.10;;
26106;SDS011;13866;50.748;12.630;2022-11-04T12:46:03;2.87;;;2.87;;
26106;SDS011;13866;50.748;12.630;2022-11-04T13:02:37;2.20;;;2.10;;
26106;SDS011;13866;50.748;12.630;2022-11-04T13:07:49;2.00;;;2.00;;
26106;SDS011;13866;50.748;12.630;2022-11-04T13:13:13;1.93;;;1.83;;
26106;SDS011;13866;50.748;12.630;2022-11-04T13:15:53;1.60;;;1.60;;
26106;SDS011;13866;50.748;12.630;2022-11-04T13:18:22;2.00;;;1.90;;
26106;SDS011;13866;50.748;12.630;2022-11-04T13:20:55;2.47;;;2.37;;
26106;SDS011;13866;50.748;12.630;2022-11-04T13:23:38;3.00;;;2.50;;
26106;SDS011;13866;50.748;12.630;2022-11-04T13:26:21;2.80;;;2.70;;
26106;SDS011;13866;50.748;12.630;2022-11-04T13:28:58;2.73;;;2.57;;
26106;SDS011;13866;50.748;12.630;2022-11-04T13:34:05;3.00;;;2.90;;
26106;SDS011;13866;50.748;12.630;2022-11-04T13:36:37;4.07;;;2.80;;
26106;SDS011;13866;50.748;12.630;2022-11-04T13:39:25;3.73;;;2.87;;
26106;SDS011;13866;50.748;12.630;2022-11-04T13:44:47;2.40;;;2.30;;
26106;SDS011;13866;50.748;12.630;2022-11-04T13:47:18;3.27;;;3.20;;
26106;SDS011;13866;50.748;12.630;2022-11-04T13:49:51;2.93;;;2.70;;
26106;SDS011;13866;50.748;12.630;2022-11-04T13:52:23;2.97;;;2.87;;
26106;SDS011;13866;50.748;12.630;2022-11-04T13:54:53;3.73;;;3.47;;
26106;SDS011;13866;50.748;12.630;2022-11-04T13:57:27;2.73;;;2.63;;
26106;SDS011;13866;50.748;12.630;2022-11-04T14:02:40;3.57;;;3.40;;
26106;SDS011;13866;50.748;12.630;2022-11-04T14:16:03;13.10;;;3.63;;
26106;SDS011;13866;50.748;12.630;2022-11-04T14:18:48;3.43;;;3.00;;
26106;SDS011;13866;50.748;12.630;2022-11-04T14:21:19;3.60;;;2.43;;
26106;SDS011;13866;50.748;12.630;2022-11-04T14:23:54;2.50;;;2.40;;
26106;SDS011;13866;50.748;12.630;2022-11-04T14:26:23;2.60;;;2.47;;
26106;SDS011;13866;50.748;12.630;2022-11-04T14:29:26;2.57;;;2.57;;
26106;SDS011;13866;50.748;12.630;2022-11-04T14:31:49;2.50;;;2.40;;
26106;SDS011;13866;50.748;12.630;2022-11-04T14:34:27;2.80;;;2.63;;
26106;SDS011;13866;50.748;12.630;2022-11-04T14:36:57;5.03;;;2.70;;
26106;SDS011;13866;50.748;12.630;2022-11-04T14:39:29;4.63;;;2.47;;
26106;SDS011;13866;50.748;12.630;2022-11-04T14:42:02;2.70;;;2.60;;
26106;SDS011;13866;50.748;12.630;2022-11-04T14:44:31;3.00;;;2.90;;
26106;SDS011;13866;50.748;12.630;2022-11-04T14:50:17;4.10;;;2.70;;
26106;SDS011;13866;50.748;12.630;2022-11-04T14:52:57;3.63;;;2.50;;
26106;SDS011;13866;50.748;12.630;2022-11-04T14:55:28;4.10;;;3.17;;
26106;SDS011;13866;50.748;12.630;2022-11-04T14:57:56;4.13;;;2.47;;
26106;SDS011;13866;50.748;12.630;2022-11-04T15:03:14;2.90;;;2.83;;
26106;SDS011;13866;50.748;12.630;2022-11-04T15:05:48;3.80;;;3.70;;
26106;SDS011;13866;50.748;12.630;2022-11-04T15:08:25;2.20;;;2.10;;
26106;SDS011;13866;50.748;12.630;2022-11-04T15:16:14;2.93;;;2.80;;
26106;SDS011;13866;50.748;12.630;2022-11-04T15:18:43;3.13;;;2.90;;
26106;SDS011;13866;50.748;12.630;2022-11-04T15:21:09;4.93;;;3.00;;
26106;SDS011;13866;50.748;12.630;2022-11-04T15:23:42;4.13;;;3.00;;
26106;SDS011;13866;50.748;12.630;2022-11-04T15:26:29;4.43;;;3.70;;
26106;SDS011;13866;50.748;12.630;2022-11-04T15:28:57;3.53;;;3.43;;
26106;SDS011;13866;50.748;12.630;2022-11-04T15:31:33;4.10;;;3.63;;
26106;SDS011;13866;50.748;12.630;2022-11-04T15:34:00;4.23;;;3.97;;
26106;SDS011;13866;50.748;12.630;2022-11-04T15:36:32;5.30;;;5.10;;
26106;SDS011;13866;50.748;12.630;2022-11-04T15:39:07;5.03;;;4.40;;
26106;SDS011;13866;50.748;12.630;2022-11-04T15:41:40;5.57;;;4.90;;
26106;SDS011;13866;50.748;12.630;2022-11-04T15:44:27;4.70;;;4.50;;
26106;SDS011;13866;50.748;12.630;2022-11-04T15:47:01;5.37;;;5.10;;
26106;SDS011;13866;50.748;12.630;2022-11-04T15:49:48;5.60;;;5.17;;
26106;SDS011;13866;50.748;12.630;2022-11-04T15:52:16;7.07;;;6.47;;
26106;SDS011;13866;50.748;12.630;2022-11-04T15:54:45;6.53;;;6.07;;
26106;SDS011;13866;50.748;12.630;2022-11-04T15:57:17;5.63;;;5.30;;
26106;SDS011;13866;50.748;12.630;2022-11-04T15:59:56;6.30;;;5.70;;
26106;SDS011;13866;50.748;12.630;2022-11-04T16:02:45;5.73;;;5.10;;
26106;SDS011;13866;50.748;12.630;2022-11-04T16:07:50;5.67;;;5.10;;
26106;SDS011;13866;50.748;12.630;2022-11-04T16:10:24;6.30;;;6.10;;
26106;SDS011;13866;50.748;12.630;2022-11-04T16:13:00;6.00;;;5.60;;
26106;SDS011;13866;50.748;12.630;2022-11-04T16:17:57;6.20;;;5.60;;
26106;SDS011;13866;50.748;12.630;2022-11-04T16:20:23;8.90;;;5.10;;
26106;SDS011;13866;50.748;12.630;2022-11-04T16:22:54;6.43;;;5.93;;
26106;SDS011;13866;50.748;12.630;2022-11-04T16:25:23;4.77;;;4.67;;
26106;SDS011;13866;50.748;12.630;2022-11-04T16:27:49;5.67;;;5.20;;
26106;SDS011;13866;50.748;12.630;2022-11-04T16:30:16;6.27;;;5.77;;
26106;SDS011;13866;50.748;12.630;2022-11-04T16:32:50;8.23;;;7.30;;
26106;SDS011;13866;50.748;12.630;2022-11-04T16:35:19;7.70;;;7.17;;
26106;SDS011;13866;50.748;12.630;2022-11-04T16:37:49;6.77;;;6.37;;
26106;SDS011;13866;50.748;12.630;2022-11-04T16:40:15;6.40;;;5.90;;
26106;SDS011;13866;50.748;12.630;2022-11-04T16:42:41;6.63;;;6.03;;
26106;SDS011;13866;50.748;12.630;2022-11-04T16:45:15;8.20;;;7.50;;
26106;SDS011;13866;50.748;12.630;2022-11-04T16:47:45;7.87;;;7.30;;
26106;SDS011;13866;50.748;12.630;2022-11-04T16:50:14;9.80;;;8.90;;
26106;SDS011;13866;50.748;12.630;2022-11-04T16:52:40;13.07;;;9.57;;
26106;SDS011;13866;50.748;12.630;2022-11-04T16:55:06;12.13;;;11.23;;
26106;SDS011;13866;50.748;12.630;2022-11-04T16:57:32;10.03;;;9.23;;
26106;SDS011;13866;50.748;12.630;2022-11-04T16:59:58;10.93;;;9.97;;
26106;SDS011;13866;50.748;12.630;2022-11-04T17:02:25;12.13;;;11.10;;
26106;SDS011;13866;50.748;12.630;2022-11-04T17:04:52;13.17;;;11.53;;
26106;SDS011;13866;50.748;12.630;2022-11-04T17:07:19;13.17;;;11.17;;
26106;SDS011;13866;50.748;12.630;2022-11-04T17:09:45;11.13;;;10.43;;
26106;SDS011;13866;50.748;12.630;2022-11-04T17:12:10;11.07;;;10.27;;